Time;durP1;ratioP1;P1;durP2;ratioP2;P2;SDS_P1;SDS_P2;PMS_P1;PMS_P2;Temp;Humidity;BMP_temperature;BMP_pressure;BME280_temperature;BME280_humidity;BME280_pressure;Samples;Min_cycle;Max_cycle;Signal;HPM_P1;HPM_P2
2022/07/26 00:01:52;;;;;;;7.00;4.10;;;24.50;96.60;;;;;;5005392;28;20018;-73
2022/07/26 00:04:18;;;;;;;6.75;4.30;;;24.50;97.40;;;;;;5004654;28;20026;-73
2022/07/26 00:06:44;;;;;;;6.50;3.90;;;24.50;97.70;;;;;;5005345;28;20034;-73
2022/07/26 00:09:09;;;;;;;9.45;4.53;;;24.50;98.30;;;;;;5005232;28;20030;-73
2022/07/26 00:11:35;;;;;;;8.73;4.57;;;24.40;97.90;;;;;;5005107;28;20081;-73
2022/07/26 00:14:03;;;;;;;6.30;3.83;;;24.50;97.80;;;;;;5009254;28;20296;-73
2022/07/26 00:16:29;;;;;;;7.30;4.65;;;24.50;98.00;;;;;;5023581;28;20265;-73
2022/07/26 00:18:55;;;;;;;6.57;4.57;;;24.40;97.80;;;;;;5013136;28;20034;-74
2022/07/26 00:21:21;;;;;;;6.70;4.15;;;24.30;98.00;;;;;;5003844;28;20441;-74
2022/07/26 00:23:46;;;;;;;6.20;4.38;;;24.30;99.20;;;;;;5003640;28;20321;-74
2022/07/26 00:26:12;;;;;;;5.60;4.30;;;24.20;98.90;;;;;;5004871;28;20089;-73
2022/07/26 00:28:40;;;;;;;5.05;3.85;;;24.20;98.60;;;;;;5003650;28;20034;-73
2022/07/26 00:31:06;;;;;;;10.52;4.18;;;24.20;98.80;;;;;;5003640;28;20030;-73
2022/07/26 00:33:32;;;;;;;8.38;4.50;;;24.20;99.60;;;;;;5003065;28;20026;-74
2022/07/26 00:35:58;;;;;;;10.43;4.10;;;24.10;99.00;;;;;;5007194;28;20018;-73
2022/07/26 00:38:24;;;;;;;4.93;3.40;;;24.10;99.10;;;;;;5024326;28;20076;-73
2022/07/26 00:40:50;;;;;;;6.97;4.00;;;23.90;99.30;;;;;;5024148;28;20022;-73
2022/07/26 00:43:16;;;;;;;;;;;23.80;99.90;;;;;;5023331;28;20042;-73
2022/07/26 00:45:42;;;;;;;8.45;3.38;;;23.80;99.90;;;;;;5023108;28;20019;-72
2022/07/26 00:48:07;;;;;;;4.90;3.15;;;23.70;99.90;;;;;;5018393;28;20182;-72
2022/07/26 00:50:33;;;;;;;5.97;3.70;;;23.60;99.90;;;;;;5004312;28;20062;-74
2022/07/26 00:52:59;;;;;;;6.40;3.60;;;23.60;99.90;;;;;;5003073;28;20033;-74
2022/07/26 00:55:24;;;;;;;8.67;3.50;;;23.50;99.90;;;;;;5003288;28;20026;-73
2022/07/26 00:57:50;;;;;;;9.38;3.75;;;23.40;99.90;;;;;;5004346;28;20058;-73
2022/07/26 01:00:20;;;;;;;5.70;3.43;;;23.40;99.90;;;;;;5004231;28;20057;-73
2022/07/26 01:02:46;;;;;;;4.53;3.40;;;23.40;99.90;;;;;;5002791;28;20603;-73
2022/07/26 01:05:12;;;;;;;9.67;3.17;;;23.40;99.90;;;;;;5004011;28;20030;-73
2022/07/26 01:07:37;;;;;;;11.07;3.30;;;23.40;99.90;;;;;;5005854;28;20279;-73
2022/07/26 01:10:05;;;;;;;11.07;3.17;;;23.20;99.90;;;;;;5022709;28;20034;-73
2022/07/26 01:12:30;;;;;;;7.40;2.88;;;23.20;99.90;;;;;;5006381;28;20092;-73
2022/07/26 01:14:56;;;;;;;6.60;3.27;;;23.20;99.90;;;;;;5023288;28;20022;-73
2022/07/26 01:17:22;;;;;;;4.20;2.63;;;23.10;99.90;;;;;;5023472;28;20022;-74
2022/07/26 01:19:47;;;;;;;4.37;2.87;;;23.10;99.90;;;;;;5005329;28;20022;-73
2022/07/26 01:22:13;;;;;;;6.90;3.43;;;23.10;99.90;;;;;;5003766;28;20269;-73
2022/07/26 01:24:39;;;;;;;7.57;3.00;;;23.20;99.90;;;;;;5003491;28;20229;-73
2022/07/26 01:27:05;;;;;;;5.73;2.80;;;23.20;99.90;;;;;;5003802;28;20388;-73
2022/07/26 01:29:30;;;;;;;4.93;3.40;;;23.10;99.90;;;;;;5003658;28;20460;-73
2022/07/26 01:31:56;;;;;;;4.77;3.03;;;23.20;99.90;;;;;;5003529;28;20034;-73
2022/07/26 01:34:22;;;;;;;9.37;3.03;;;23.10;99.90;;;;;;5003071;28;20286;-73
2022/07/26 01:36:49;;;;;;;5.60;2.90;;;23.20;99.90;;;;;;5002604;28;20050;-74
2022/07/26 01:42:39;;;;;;;6.90;3.17;;;23.10;99.90;;;;;;5003307;28;20088;-73
2022/07/26 01:45:08;;;;;;;4.03;2.88;;;23.10;99.90;;;;;;4986317;28;20028;-73
2022/07/26 01:47:33;;;;;;;4.43;2.80;;;23.00;99.90;;;;;;4986292;28;20038;-73
2022/07/26 01:49:59;;;;;;;4.10;2.83;;;23.00;99.90;;;;;;5002485;28;20041;-73
2022/07/26 01:52:26;;;;;;;6.43;2.90;;;23.00;99.90;;;;;;4999568;28;20085;-73
2022/07/26 01:54:52;;;;;;;5.15;3.05;;;23.10;99.90;;;;;;5002897;28;20253;-73
2022/07/26 01:57:18;;;;;;;5.97;2.90;;;23.10;99.90;;;;;;4997820;28;20034;-73
2022/07/26 01:59:43;;;;;;;4.47;3.08;;;23.10;99.90;;;;;;5001861;28;20344;-73
2022/07/26 02:02:10;;;;;;;5.33;3.07;;;23.10;99.90;;;;;;5002950;28;20018;-73
2022/07/26 02:07:20;;;;;;;5.18;3.20;;;23.20;99.90;;;;;;5003097;28;20037;-73
2022/07/26 02:09:45;;;;;;;6.00;3.23;;;23.30;99.90;;;;;;5003002;28;20321;-73
2022/07/26 02:12:12;;;;;;;7.28;3.05;;;23.20;99.90;;;;;;5003006;28;20037;-74
2022/07/26 02:14:37;;;;;;;4.72;2.63;;;23.20;99.90;;;;;;5002483;28;20077;-73
2022/07/26 02:17:03;;;;;;;5.07;3.08;;;23.30;99.90;;;;;;5002947;28;20022;-73
2022/07/26 02:19:30;;;;;;;6.75;2.83;;;23.20;99.90;;;;;;5002627;28;20025;-73
2022/07/26 02:21:56;;;;;;;8.00;3.25;;;23.20;99.50;;;;;;5001490;28;20093;-73
2022/07/26 02:24:22;;;;;;;4.97;3.08;;;23.20;99.30;;;;;;5002432;28;20022;-73
2022/07/26 02:26:47;;;;;;;6.10;2.80;;;23.20;99.00;;;;;;4985700;28;20041;-73
2022/07/26 02:29:13;;;;;;;5.63;2.87;;;23.20;98.80;;;;;;5002772;28;20181;-73
2022/07/26 02:31:39;;;;;;;5.63;3.00;;;23.20;98.00;;;;;;5002616;28;20037;-73
2022/07/26 02:34:05;;;;;;;5.30;2.33;;;23.20;98.60;;;;;;5002063;28;20058;-73
2022/07/26 02:36:31;;;;;;;4.70;2.73;;;23.20;97.80;;;;;;5002580;28;20273;-73
2022/07/26 02:38:56;;;;;;;3.55;2.75;;;23.10;98.30;;;;;;5002136;28;20034;-73
2022/07/26 02:41:22;;;;;;;4.57;3.13;;;23.10;98.70;;;;;;5002478;28;20052;-73
2022/07/26 02:43:48;;;;;;;4.70;2.70;;;23.10;98.90;;;;;;5002363;28;20313;-73
2022/07/26 02:46:14;;;;;;;6.73;2.87;;;23.00;97.70;;;;;;5005796;28;20029;-73
2022/07/26 02:48:40;;;;;;;5.40;2.80;;;23.10;98.50;;;;;;5013573;28;20281;-73
2022/07/26 02:51:06;;;;;;;8.70;2.90;;;23.10;99.90;;;;;;5002455;28;20298;-73
2022/07/26 02:53:50;;;;;;;4.78;2.45;;;23.10;99.60;;;;;;4976038;28;20357;-73
2022/07/26 02:56:15;;;;;;;6.25;3.25;;;23.10;99.30;;;;;;5006598;28;20026;-73
2022/07/26 02:58:41;;;;;;;4.67;2.70;;;23.10;99.70;;;;;;5006488;28;20261;-73
2022/07/26 03:01:07;;;;;;;3.85;2.63;;;23.10;99.30;;;;;;5005309;28;20037;-73
2022/07/26 03:03:33;;;;;;;8.75;3.80;;;23.10;99.30;;;;;;5005800;28;20078;-73
2022/07/26 03:05:59;;;;;;;4.65;2.78;;;23.10;98.40;;;;;;5006430;28;20026;-73
2022/07/26 03:08:24;;;;;;;3.57;2.90;;;23.10;98.10;;;;;;5006286;28;20030;-73
2022/07/26 03:10:50;;;;;;;10.33;2.80;;;23.10;97.80;;;;;;5006314;28;20073;-75
2022/07/26 03:13:16;;;;;;;6.97;2.50;;;23.10;98.10;;;;;;5006065;28;20026;-75
2022/07/26 03:15:41;;;;;;;4.63;2.93;;;23.10;98.30;;;;;;5003702;28;20038;-74
2022/07/26 03:18:07;;;;;;;3.60;2.70;;;23.10;99.80;;;;;;5001174;28;20018;-74
2022/07/26 03:20:33;;;;;;;4.43;2.90;;;23.00;99.40;;;;;;5005740;28;20025;-74
2022/07/26 03:22:59;;;;;;;3.30;2.67;;;23.00;97.60;;;;;;5004744;28;20019;-74
2022/07/26 03:25:24;;;;;;;5.33;2.60;;;23.00;97.50;;;;;;5006093;28;20026;-74
2022/07/26 03:27:55;;;;;;;8.80;3.53;;;22.90;98.40;;;;;;5006023;28;20082;-74
2022/07/26 03:30:22;;;;;;;5.15;2.70;;;22.90;97.90;;;;;;5003000;28;20073;-74
2022/07/26 03:32:48;;;;;;;;;;;22.90;97.60;;;;;;5004394;28;20225;-74
2022/07/26 03:35:13;;;;;;;5.18;2.83;;;22.90;97.70;;;;;;5004300;28;19982;-74
2022/07/26 03:37:39;;;;;;;7.23;3.07;;;22.90;97.40;;;;;;5005603;28;20029;-74
2022/07/26 03:40:07;;;;;;;4.57;3.33;;;22.90;97.30;;;;;;5004364;28;20033;-74
2022/07/26 03:42:34;;;;;;;5.15;2.58;;;22.90;96.50;;;;;;5005550;28;20049;-74
2022/07/26 03:44:59;;;;;;;7.38;3.20;;;22.90;96.60;;;;;;5004440;28;20320;-74
2022/07/26 03:47:25;;;;;;;6.50;2.80;;;22.90;96.30;;;;;;5005596;28;20092;-74
2022/07/26 03:49:51;;;;;;;7.13;2.87;;;22.80;96.70;;;;;;5004550;28;20026;-74
2022/07/26 03:52:17;;;;;;;4.63;2.50;;;22.80;96.00;;;;;;5005268;28;20061;-74
2022/07/26 03:54:42;;;;;;;4.00;2.73;;;22.80;95.60;;;;;;5005155;28;20023;-74
2022/07/26 03:57:08;;;;;;;4.87;2.43;;;22.80;96.20;;;;;;5005394;28;20018;-74
2022/07/26 03:59:34;;;;;;;5.27;2.77;;;22.80;96.40;;;;;;5004831;28;20073;-74
2022/07/26 04:02:00;;;;;;;9.05;2.78;;;22.80;96.10;;;;;;5004981;28;20026;-74
2022/07/26 04:04:26;;;;;;;5.20;3.07;;;22.80;96.40;;;;;;5004352;28;20095;-74
2022/07/26 04:06:51;;;;;;;5.40;2.73;;;22.80;96.20;;;;;;5005170;28;20037;-74
2022/07/26 04:09:17;;;;;;;6.87;2.70;;;22.70;95.90;;;;;;5005244;28;20058;-73
2022/07/26 04:11:43;;;;;;;9.03;3.30;;;22.50;95.20;;;;;;5005117;28;20029;-73
2022/07/26 04:14:09;;;;;;;9.47;3.33;;;22.40;96.10;;;;;;5004827;28;20025;-73
2022/07/26 04:16:35;;;;;;;8.18;2.60;;;22.20;96.10;;;;;;5003916;28;20018;-73
2022/07/26 04:19:01;;;;;;;6.80;2.90;;;22.10;96.50;;;;;;5004858;28;20037;-73
2022/07/26 04:21:26;;;;;;;8.57;2.30;;;22.00;96.60;;;;;;5005008;28;20030;-74
2022/07/26 04:23:52;;;;;;;7.97;2.80;;;22.00;96.60;;;;;;5003600;28;20034;-74
2022/07/26 04:26:19;;;;;;;4.87;2.60;;;21.90;95.80;;;;;;5005016;28;20037;-73
2022/07/26 04:28:45;;;;;;;6.40;2.75;;;21.90;96.20;;;;;;5003721;28;20085;-73
2022/07/26 04:31:11;;;;;;;4.17;2.53;;;21.80;96.40;;;;;;5004606;28;20026;-73
2022/07/26 04:33:37;;;;;;;4.07;2.50;;;21.90;97.50;;;;;;5004344;28;20132;-74
2022/07/26 04:36:03;;;;;;;5.07;2.90;;;21.90;99.90;;;;;;5003419;28;20029;-73
2022/07/26 04:38:28;;;;;;;7.53;3.05;;;22.00;99.00;;;;;;5003540;28;20045;-73
2022/07/26 04:40:55;;;;;;;6.60;3.00;;;22.10;97.50;;;;;;5004735;28;20030;-74
2022/07/26 04:43:20;;;;;;;7.57;2.92;;;22.10;97.10;;;;;;5004252;28;20019;-73
2022/07/26 04:45:46;;;;;;;3.47;2.63;;;22.20;98.30;;;;;;5003344;28;20026;-73
2022/07/26 04:48:13;;;;;;;6.28;2.67;;;22.20;96.50;;;;;;5004063;28;20030;-73
2022/07/26 04:50:39;;;;;;;;;;;22.20;96.20;;;;;;5003676;28;20093;-74
2022/07/26 04:53:05;;;;;;;4.30;2.47;;;22.30;97.40;;;;;;5004270;28;20227;-73
2022/07/26 04:55:30;;;;;;;5.90;2.80;;;22.30;98.20;;;;;;5003165;28;20018;-74
2022/07/26 04:57:56;;;;;;;4.40;2.70;;;22.30;97.60;;;;;;5003198;28;20360;-74
2022/07/26 05:00:23;;;;;;;8.23;2.90;;;22.40;97.70;;;;;;5004004;28;20069;-74
2022/07/26 05:02:54;;;;;;;6.05;2.90;;;22.40;98.40;;;;;;5003736;28;20030;-74
2022/07/26 05:05:21;;;;;;;5.13;2.95;;;22.40;98.20;;;;;;5002869;28;20029;-74
2022/07/26 05:07:52;;;;;;;6.25;2.85;;;22.40;98.00;;;;;;4986725;28;20034;-74
2022/07/26 05:10:18;;;;;;;6.32;3.05;;;22.40;98.40;;;;;;4986734;28;20030;-74
2022/07/26 05:12:47;;;;;;;5.32;2.78;;;22.30;98.50;;;;;;4984845;28;20041;-74
2022/07/26 05:15:13;;;;;;;4.43;2.88;;;22.30;98.20;;;;;;5001857;28;20037;-74
2022/07/26 05:17:42;;;;;;;6.47;3.47;;;22.30;98.30;;;;;;5002582;28;20081;-74
2022/07/26 05:20:12;;;;;;;7.63;3.10;;;22.30;98.20;;;;;;5002756;28;20253;-74
2022/07/26 05:22:38;;;;;;;5.07;3.05;;;22.20;97.30;;;;;;4986823;28;20378;-74
2022/07/26 05:25:05;;;;;;;4.97;2.90;;;22.30;98.60;;;;;;5002448;28;20339;-74
2022/07/26 05:27:30;;;;;;;7.65;3.38;;;22.30;99.10;;;;;;5002712;28;20343;-73
2022/07/26 05:29:56;;;;;;;7.90;3.40;;;22.50;99.90;;;;;;5000197;28;20041;-73
2022/07/26 05:32:22;;;;;;;7.43;3.10;;;22.50;99.90;;;;;;4995041;28;20038;-74
2022/07/26 05:34:48;;;;;;;7.40;3.47;;;22.60;99.90;;;;;;4995525;28;20018;-74
2022/07/26 05:37:14;;;;;;;10.73;3.47;;;22.60;99.90;;;;;;4992121;28;20034;-74
2022/07/26 05:39:40;;;;;;;7.43;2.77;;;22.50;99.90;;;;;;5003037;28;20022;-73
2022/07/26 05:42:05;;;;;;;6.37;2.87;;;22.50;99.90;;;;;;5003394;28;20052;-74
2022/07/26 05:44:31;;;;;;;6.77;2.87;;;22.50;99.90;;;;;;5003031;28;20034;-74
2022/07/26 05:46:57;;;;;;;7.20;3.40;;;22.60;99.90;;;;;;5003085;28;20042;-74
2022/07/26 05:49:24;;;;;;;8.50;3.40;;;22.60;99.90;;;;;;5002600;28;20308;-73
2022/07/26 05:51:51;;;;;;;6.60;2.55;;;22.60;99.90;;;;;;5003180;28;20096;-73
2022/07/26 05:54:17;;;;;;;5.88;2.95;;;22.60;99.90;;;;;;5002724;28;20030;-73
2022/07/26 05:56:43;;;;;;;6.72;3.20;;;22.60;99.90;;;;;;5001966;28;20085;-73
2022/07/26 05:59:09;;;;;;;6.97;2.75;;;22.60;99.90;;;;;;5002995;28;20022;-69
2022/07/26 06:01:35;;;;;;;4.87;2.90;;;22.60;99.90;;;;;;5003034;28;20221;-68
2022/07/26 06:04:00;;;;;;;7.03;3.05;;;22.50;99.90;;;;;;5001341;28;20027;-68
2022/07/26 06:06:26;;;;;;;8.00;3.08;;;22.50;99.90;;;;;;5001666;28;20058;-68
2022/07/26 06:08:52;;;;;;;5.90;2.63;;;22.50;99.90;;;;;;5002779;28;20054;-68
2022/07/26 06:11:18;;;;;;;7.83;2.70;;;22.50;99.90;;;;;;5002541;28;20029;-68
2022/07/26 06:13:44;;;;;;;6.90;2.97;;;22.40;99.90;;;;;;5002453;28;20104;-68
2022/07/26 06:16:09;;;;;;;7.32;3.30;;;22.50;99.90;;;;;;5002652;28;20039;-68
2022/07/26 06:18:35;;;;;;;9.27;4.33;;;22.40;99.90;;;;;;5002588;28;20030;-68
2022/07/26 06:21:01;;;;;;;11.47;3.27;;;22.30;99.90;;;;;;5002628;28;20032;-68
2022/07/26 06:23:27;;;;;;;10.67;3.30;;;22.30;99.90;;;;;;5002542;28;20034;-68
2022/07/26 06:25:53;;;;;;;7.18;2.90;;;22.20;99.90;;;;;;5002749;28;20112;-69
2022/07/26 06:28:18;;;;;;;7.60;2.83;;;22.20;99.90;;;;;;5002727;28;20053;-69
2022/07/26 06:30:44;;;;;;;4.90;2.63;;;22.30;99.90;;;;;;5002578;28;20329;-69
2022/07/26 06:33:10;;;;;;;8.23;3.17;;;22.30;99.90;;;;;;5002329;28;20042;-68
2022/07/26 06:35:38;;;;;;;7.05;3.35;;;22.30;99.90;;;;;;5002244;28;20281;-68
2022/07/26 06:38:05;;;;;;;5.82;2.72;;;22.30;99.90;;;;;;5003022;28;20129;-69
2022/07/26 06:40:32;;;;;;;8.75;3.10;;;22.30;99.90;;;;;;5001224;28;20026;-68
2022/07/26 06:43:01;;;;;;;8.38;4.07;;;22.40;99.90;;;;;;5001467;28;20057;-69
2022/07/26 06:45:27;;;;;;;5.63;3.10;;;22.40;99.90;;;;;;5001293;28;20345;-69
2022/07/26 06:47:53;;;;;;;5.60;3.08;;;22.40;99.90;;;;;;5001149;28;20041;-69
2022/07/26 06:50:18;;;;;;;5.03;2.83;;;22.40;99.90;;;;;;5001310;28;20030;-69
2022/07/26 06:52:44;;;;;;;8.93;3.13;;;22.40;99.90;;;;;;5002027;28;20029;-68
2022/07/26 06:55:11;;;;;;;4.67;3.10;;;22.50;99.90;;;;;;5002194;28;20025;-68
2022/07/26 06:57:37;;;;;;;5.50;3.00;;;22.60;99.90;;;;;;5002533;28;20064;-69
2022/07/26 07:00:07;;;;;;;6.70;2.90;;;22.70;99.70;;;;;;5002502;28;20027;-69
2022/07/26 07:02:33;;;;;;;7.28;2.40;;;22.70;99.00;;;;;;5001212;28;20026;-68
2022/07/26 07:04:59;;;;;;;6.90;2.55;;;22.80;96.30;;;;;;5001014;28;20037;-69
2022/07/26 07:07:24;;;;;;;2.53;2.10;;;22.80;95.00;;;;;;5002316;28;20030;-69
2022/07/26 07:09:50;;;;;;;5.60;2.60;;;22.90;93.70;;;;;;5002335;28;20079;-69
2022/07/26 07:12:16;;;;;;;6.13;2.67;;;22.90;91.80;;;;;;5002251;28;20033;-69
2022/07/26 07:14:42;;;;;;;6.43;2.33;;;22.90;92.50;;;;;;5002043;28;20031;-69
2022/07/26 07:17:08;;;;;;;3.03;2.20;;;23.00;91.00;;;;;;5002280;28;20319;-69
2022/07/26 07:19:36;;;;;;;4.15;2.67;;;23.00;91.30;;;;;;5001975;28;20272;-69
2022/07/26 07:22:03;;;;;;;8.98;2.45;;;23.00;91.80;;;;;;5001896;28;20038;-69
2022/07/26 07:24:29;;;;;;;4.13;2.53;;;23.10;92.60;;;;;;5001619;28;20216;-69
2022/07/26 07:26:55;;;;;;;4.33;2.00;;;23.10;91.70;;;;;;5002115;28;20030;-69
2022/07/26 07:29:20;;;;;;;4.10;2.50;;;23.20;92.10;;;;;;5002217;28;20344;-69
2022/07/26 07:31:46;;;;;;;4.77;2.17;;;23.30;91.30;;;;;;5001950;28;20376;-69
2022/07/26 07:34:14;;;;;;;8.68;2.67;;;23.40;91.50;;;;;;5001332;28;20034;-69
2022/07/26 07:36:39;;;;;;;5.70;2.65;;;23.50;91.20;;;;;;5001803;28;20023;-70
2022/07/26 07:39:05;;;;;;;5.43;3.10;;;23.50;91.20;;;;;;5004743;28;20030;-68
2022/07/26 07:41:33;;;;;;;6.90;3.05;;;23.60;92.40;;;;;;5004548;28;20048;-68
2022/07/26 07:43:59;;;;;;;4.57;2.65;;;23.70;93.20;;;;;;5005258;28;20089;-69
2022/07/26 07:46:25;;;;;;;;;;;23.70;90.80;;;;;;5005942;28;20068;-68
2022/07/26 07:48:52;;;;;;;7.95;2.80;;;23.70;90.20;;;;;;5003979;28;19945;-69
2022/07/26 07:51:18;;;;;;;;;;;23.60;90.60;;;;;;5005607;28;20045;-69
2022/07/26 07:53:44;;;;;;;6.38;3.20;;;23.50;91.30;;;;;;5004245;28;19918;-69
2022/07/26 07:56:09;;;;;;;11.03;3.67;;;23.50;92.30;;;;;;5004482;28;20266;-69
2022/07/26 07:58:35;;;;;;;4.30;2.30;;;23.50;92.60;;;;;;4986088;28;20361;-69
2022/07/26 08:01:01;;;;;;;7.20;3.27;;;23.50;90.90;;;;;;4985779;28;20033;-69
2022/07/26 08:03:27;;;;;;;3.97;2.40;;;23.50;89.80;;;;;;4985296;28;20054;-69
2022/07/26 08:05:52;;;;;;;6.10;2.20;;;23.60;90.80;;;;;;4985518;28;20282;-69
2022/07/26 08:08:21;;;;;;;5.93;2.50;;;23.70;87.70;;;;;;4985575;28;20086;-69
2022/07/26 08:10:47;;;;;;;5.97;2.38;;;23.70;87.20;;;;;;4985629;28;20038;-70
2022/07/26 08:13:12;;;;;;;6.43;2.50;;;23.80;84.80;;;;;;4985332;28;20126;-70
2022/07/26 08:15:38;;;;;;;5.30;2.53;;;23.90;85.00;;;;;;4985408;28;20030;-76
2022/07/26 08:18:04;;;;;;;2.35;1.98;;;24.00;85.10;;;;;;4984586;28;20019;-69
2022/07/26 08:20:29;;;;;;;3.90;1.92;;;24.10;81.70;;;;;;5004667;28;20034;-69
2022/07/26 08:22:55;;;;;;;4.60;1.80;;;24.20;76.30;;;;;;5004611;28;20018;-69
2022/07/26 08:25:21;;;;;;;7.65;2.00;;;24.20;75.20;;;;;;5004879;28;20303;-70
2022/07/26 08:27:47;;;;;;;3.77;2.17;;;24.20;76.80;;;;;;5004853;28;20292;-70
2022/07/26 08:30:13;;;;;;;3.80;2.30;;;24.30;78.40;;;;;;5004728;28;20340;-70
2022/07/26 08:32:39;;;;;;;8.65;1.95;;;24.30;78.50;;;;;;5004558;28;20026;-70
2022/07/26 08:35:05;;;;;;;4.83;2.10;;;24.40;78.60;;;;;;5004164;28;20337;-67
2022/07/26 08:37:31;;;;;;;;;;;24.50;79.60;;;;;;5005117;28;20588;-68
2022/07/26 08:39:56;;;;;;;5.53;1.95;;;24.60;82.10;;;;;;5004640;28;19920;-70
2022/07/26 08:42:22;;;;;;;2.88;2.15;;;24.50;75.50;;;;;;5004473;28;20056;-69
2022/07/26 08:44:48;;;;;;;5.05;2.17;;;24.20;74.30;;;;;;5004251;28;20096;-70
2022/07/26 08:47:17;;;;;;;2.78;2.10;;;24.20;76.10;;;;;;5004230;28;20018;-70
2022/07/26 08:49:43;;;;;;;5.55;2.30;;;24.20;75.70;;;;;;5002302;28;20276;-70
2022/07/26 08:52:09;;;;;;;6.00;2.30;;;24.30;76.20;;;;;;5004338;28;20030;-71
2022/07/26 08:54:35;;;;;;;4.55;1.70;;;24.30;76.50;;;;;;5004019;28;20265;-70
2022/07/26 08:57:01;;;;;;;6.90;1.92;;;24.30;70.00;;;;;;5004362;28;20031;-70
2022/07/26 08:59:29;;;;;;;7.78;2.25;;;24.30;72.30;;;;;;5004235;28;20076;-69
2022/07/26 09:02:01;;;;;;;6.57;2.38;;;24.20;70.50;;;;;;5004251;28;20037;-70
2022/07/26 09:04:35;;;;;;;5.97;2.15;;;24.30;70.80;;;;;;5003975;28;20026;-70
2022/07/26 09:07:14;;;;;;;5.53;2.00;;;24.50;72.30;;;;;;5004175;28;20022;-70
2022/07/26 09:10:02;;;;;;;4.97;2.42;;;24.60;73.60;;;;;;5004186;28;20049;-70
2022/07/26 09:12:29;;;;;;;5.13;1.98;;;24.80;73.80;;;;;;5003874;28;20023;-69
2022/07/26 09:14:55;;;;;;;;;;;24.90;72.60;;;;;;5004213;28;20340;-69
2022/07/26 09:17:22;;;;;;;3.42;1.88;;;24.90;73.10;;;;;;5002747;28;19905;-68
2022/07/26 09:20:10;;;;;;;5.13;2.50;;;25.00;73.20;;;;;;5003553;28;20110;-69
2022/07/26 09:23:05;;;;;;;4.03;2.10;;;25.10;70.30;;;;;;5003477;28;20097;-70
2022/07/26 09:25:38;;;;;;;6.07;2.13;;;25.20;71.70;;;;;;5003994;28;20038;-69
2022/07/26 09:28:28;;;;;;;4.65;1.90;;;25.30;72.00;;;;;;5003769;28;20022;-70
2022/07/26 09:31:02;;;;;;;4.43;1.85;;;25.40;66.20;;;;;;5003666;28;20018;-69
2022/07/26 09:33:44;;;;;;;7.72;2.17;;;25.50;68.10;;;;;;5003300;28;20030;-70
2022/07/26 09:36:10;;;;;;;7.38;2.50;;;25.50;66.80;;;;;;5003309;28;20325;-69
2022/07/26 09:38:52;;;;;;;7.13;2.60;;;25.40;67.90;;;;;;5003420;28;20072;-70
2022/07/26 09:41:27;;;;;;;2.78;2.08;;;25.10;68.00;;;;;;5003410;28;20062;-69
2022/07/26 09:43:58;;;;;;;3.22;1.83;;;25.00;70.40;;;;;;5001960;28;20018;-69
2022/07/26 09:46:27;;;;;;;8.18;2.75;;;25.00;71.00;;;;;;5003343;28;20033;-69
2022/07/26 09:48:54;;;;;;;7.28;2.10;;;25.10;70.40;;;;;;5003379;28;20026;-68
2022/07/26 09:51:45;;;;;;;3.20;2.13;;;25.10;70.90;;;;;;5001609;28;20142;-69
2022/07/26 09:54:28;;;;;;;3.05;2.05;;;25.10;70.00;;;;;;4994663;28;20105;-68
2022/07/26 09:56:53;;;;;;;6.32;2.00;;;24.90;68.90;;;;;;5003219;28;20026;-68
2022/07/26 09:59:21;;;;;;;2.22;1.50;;;24.70;69.00;;;;;;5003024;28;20033;-67
2022/07/26 10:01:48;;;;;;;5.88;1.80;;;24.60;66.90;;;;;;5001748;28;20044;-67
2022/07/26 10:04:14;;;;;;;5.22;1.77;;;24.60;65.20;;;;;;5001739;28;20029;-67
2022/07/26 10:06:40;;;;;;;7.05;2.10;;;24.70;68.40;;;;;;5002763;28;20244;-67
2022/07/26 10:09:06;;;;;;;5.95;2.25;;;24.80;69.30;;;;;;5003339;28;20084;-67
2022/07/26 10:11:44;;;;;;;3.53;1.92;;;24.80;70.20;;;;;;5001861;28;20300;-67
2022/07/26 10:14:32;;;;;;;7.13;2.85;;;25.00;71.00;;;;;;5001600;28;20045;-68
2022/07/26 10:17:27;;;;;;;;;;;25.20;69.90;;;;;;5003180;28;20045;-68
2022/07/26 10:20:01;;;;;;;4.95;1.85;;;25.30;68.40;;;;;;5001735;28;19913;-67
2022/07/26 10:22:32;;;;;;;5.40;2.10;;;25.50;68.00;;;;;;5002560;28;20060;-67
2022/07/26 10:25:16;;;;;;;4.88;2.60;;;25.70;68.90;;;;;;5002450;28;20129;-70
2022/07/26 10:27:47;;;;;;;4.07;1.88;;;25.80;66.00;;;;;;5002624;28;20034;-70
2022/07/26 10:30:19;;;;;;;4.45;1.83;;;25.90;66.10;;;;;;5002985;28;20018;-70
2022/07/26 10:32:50;;;;;;;4.55;1.70;;;26.00;63.20;;;;;;5002345;28;20061;-70
2022/07/26 10:35:43;;;;;;;3.42;1.65;;;25.80;61.50;;;;;;5002297;28;20034;-69
2022/07/26 10:38:22;;;;;;;5.45;1.65;;;25.60;63.70;;;;;;5002548;28;20029;-70
2022/07/26 10:40:58;;;;;;;3.80;2.00;;;25.50;65.10;;;;;;5002448;28;20078;-70
2022/07/26 10:43:23;;;;;;;7.18;2.13;;;25.60;64.80;;;;;;5001130;28;20241;-70
2022/07/26 10:46:15;;;;;;;4.88;1.73;;;25.80;66.40;;;;;;5001328;28;20029;-70
2022/07/26 10:49:02;;;;;;;5.38;1.65;;;25.90;63.80;;;;;;4996171;28;20037;-70
2022/07/26 10:51:33;;;;;;;6.13;1.58;;;26.00;60.50;;;;;;4982596;28;20047;-70
2022/07/26 10:54:00;;;;;;;2.55;1.27;;;25.90;59.70;;;;;;4982854;28;20030;-70
2022/07/26 10:56:28;;;;;;;2.92;1.30;;;25.70;60.10;;;;;;4981801;28;20030;-69
2022/07/26 10:58:53;;;;;;;4.43;1.48;;;25.80;62.60;;;;;;4983078;28;20027;-70
2022/07/26 11:01:19;;;;;;;4.25;1.52;;;25.90;62.30;;;;;;4983109;28;20033;-70
2022/07/26 11:03:45;;;;;;;2.30;1.35;;;26.00;60.80;;;;;;4986084;28;20399;-69
2022/07/26 11:06:18;;;;;;;2.35;1.15;;;26.10;61.70;;;;;;5001199;28;20061;-70
2022/07/26 11:08:46;;;;;;;7.60;1.45;;;26.30;58.70;;;;;;5002618;28;20324;-70
2022/07/26 11:11:12;;;;;;;4.25;1.58;;;26.40;58.60;;;;;;5002706;28;20038;-70
2022/07/26 11:13:39;;;;;;;4.78;1.40;;;26.60;57.60;;;;;;5024422;28;20034;-70
2022/07/26 11:16:07;;;;;;;4.13;1.25;;;26.70;56.60;;;;;;5025831;28;20089;-71
2022/07/26 11:18:35;;;;;;;5.95;1.52;;;26.90;57.60;;;;;;4992735;28;20093;-70
2022/07/26 11:21:14;;;;;;;4.38;1.25;;;27.10;58.30;;;;;;5025695;28;20041;-71
2022/07/26 11:23:45;;;;;;;5.68;1.25;;;27.20;56.10;;;;;;5025568;28;20025;-71
2022/07/26 11:26:13;;;;;;;3.80;1.10;;;27.30;57.40;;;;;;5025766;28;20048;-71
2022/07/26 11:28:59;;;;;;;3.72;1.55;;;27.40;56.00;;;;;;5024743;28;20037;-71
2022/07/26 11:31:38;;;;;;;5.50;1.20;;;27.60;56.00;;;;;;5024593;28;20073;-71
2022/07/26 11:34:05;;;;;;;3.13;1.35;;;27.70;54.00;;;;;;5016764;28;20037;-71
2022/07/26 11:36:38;;;;;;;;;;;27.80;54.20;;;;;;5006034;28;20055;-71
2022/07/26 11:39:09;;;;;;;3.63;1.38;;;27.90;55.30;;;;;;5004820;28;20272;-71
2022/07/26 11:41:35;;;;;;;4.95;1.10;;;27.90;52.80;;;;;;4988336;28;20194;-71
2022/07/26 11:44:01;;;;;;;1.50;0.90;;;27.90;50.60;;;;;;5005540;28;20032;-71
2022/07/26 11:46:35;;;;;;;;;;;28.00;50.00;;;;;;5004951;28;20098;-71
2022/07/26 11:49:01;;;;;;;2.53;0.80;;;28.00;50.10;;;;;;5005722;28;19912;-71
2022/07/26 11:51:28;;;;;;;5.43;1.05;;;28.10;49.80;;;;;;5003999;28;20034;-71
2022/07/26 11:53:58;;;;;;;1.52;1.10;;;28.10;49.70;;;;;;5005135;28;20400;-71
2022/07/26 11:56:25;;;;;;;7.30;1.33;;;28.00;50.10;;;;;;5004278;28;20260;-71
2022/07/26 11:58:52;;;;;;;3.65;1.30;;;28.20;52.20;;;;;;5004303;28;20049;-71
2022/07/26 12:01:19;;;;;;;3.70;1.20;;;28.30;50.40;;;;;;5005020;28;20021;-71
2022/07/26 12:03:50;;;;;;;1.73;1.10;;;28.30;50.50;;;;;;5003821;28;20033;-71
2022/07/26 12:06:23;;;;;;;2.58;1.15;;;28.40;50.70;;;;;;5005027;28;20023;-71
2022/07/26 12:08:55;;;;;;;3.92;1.00;;;28.60;51.70;;;;;;5004010;28;20037;-72
2022/07/26 12:11:22;;;;;;;1.55;1.00;;;28.60;49.70;;;;;;5004003;28;20430;-72
2022/07/26 12:14:00;;;;;;;8.25;1.40;;;28.70;51.40;;;;;;5003373;28;20022;-72
2022/07/26 12:16:45;;;;;;;1.85;1.08;;;28.80;50.40;;;;;;5003959;28;20053;-71
2022/07/26 12:19:17;;;;;;;1.67;1.10;;;28.80;51.60;;;;;;5004994;28;20091;-71
2022/07/26 12:21:47;;;;;;;4.70;1.10;;;28.80;51.10;;;;;;5004729;28;20022;-71
2022/07/26 12:24:40;;;;;;;4.70;1.55;;;29.00;50.40;;;;;;5004382;28;20213;-72
2022/07/26 12:27:08;;;;;;;1.45;1.10;;;29.30;50.30;;;;;;5003973;28;20348;-71
2022/07/26 12:29:37;;;;;;;3.50;1.13;;;29.60;49.90;;;;;;5003864;28;20057;-72
2022/07/26 12:32:31;;;;;;;6.18;1.25;;;29.70;50.70;;;;;;5003659;28;20089;-72
2022/07/26 12:35:06;;;;;;;4.65;1.73;;;29.80;49.30;;;;;;5003177;28;20038;-72
2022/07/26 12:37:35;;;;;;;2.05;1.48;;;30.00;49.40;;;;;;5003677;28;20344;-72
2022/07/26 12:40:06;;;;;;;2.88;1.00;;;30.20;49.70;;;;;;5003734;28;20325;-72
2022/07/26 12:42:57;;;;;;;3.33;1.42;;;30.30;46.80;;;;;;5004535;28;20065;-72
2022/07/26 12:45:30;;;;;;;8.27;1.42;;;29.80;49.00;;;;;;4998289;28;20332;-73
2022/07/26 12:47:57;;;;;;;5.63;1.45;;;29.70;50.10;;;;;;5004499;28;20026;-72
2022/07/26 12:50:25;;;;;;;4.43;1.60;;;29.30;50.00;;;;;;5003614;28;20030;-71
2022/07/26 12:52:51;;;;;;;5.68;1.70;;;29.30;50.80;;;;;;5003209;28;20344;-72
2022/07/26 12:55:20;;;;;;;2.63;1.40;;;29.20;49.90;;;;;;5003134;28;20276;-72
2022/07/26 12:57:46;;;;;;;3.47;1.67;;;29.00;51.00;;;;;;5003331;28;20026;-71
2022/07/26 13:00:13;;;;;;;5.28;1.77;;;29.00;50.50;;;;;;5004353;28;20186;-73